sensor_id;sensor_type;location;lat;lon;timestamp;pressure;altitude;pressure_sealevel;temperature;humidity
59877;BME280;45749;51.140;17.184;2022-09-09T00:02:20;99715.38;;;17.61;95.28
59877;BME280;45749;51.140;17.184;2022-09-09T00:04:40;99721.70;;;17.59;95.31
59877;BME280;45749;51.140;17.184;2022-09-09T00:10:23;99722.38;;;17.53;95.00
59877;BME280;45749;51.140;17.184;2022-09-09T00:13:01;99722.90;;;17.49;94.95
59877;BME280;45749;51.140;17.184;2022-09-09T00:23:38;99727.42;;;17.44;95.11
59877;BME280;45749;51.140;17.184;2022-09-09T00:31:39;99731.25;;;17.33;95.03
59877;BME280;45749;51.140;17.184;2022-09-09T00:34:15;99733.61;;;17.28;95.13
59877;BME280;45749;51.140;17.184;2022-09-09T00:36:44;99729.13;;;17.25;95.27
59877;BME280;45749;51.140;17.184;2022-09-09T00:48:14;99723.97;;;17.15;95.20
59877;BME280;45749;51.140;17.184;2022-09-09T00:50:56;99728.31;;;17.08;94.99
59877;BME280;45749;51.140;17.184;2022-09-09T00:56:20;99730.96;;;17.00;95.08
59877;BME280;45749;51.140;17.184;2022-09-09T00:59:00;99729.45;;;16.97;95.05
59877;BME280;45749;51.140;17.184;2022-09-09T01:01:33;99728.31;;;16.96;95.09
59877;BME280;45749;51.140;17.184;2022-09-09T01:04:03;99729.31;;;16.95;95.15
59877;BME280;45749;51.140;17.184;2022-09-09T01:06:34;99732.63;;;16.93;95.11
59877;BME280;45749;51.140;17.184;2022-09-09T01:09:22;99733.29;;;16.91;95.10
59877;BME280;45749;51.140;17.184;2022-09-09T01:14:40;99730.31;;;16.85;94.82
59877;BME280;45749;51.140;17.184;2022-09-09T01:17:44;99732.63;;;16.80;94.74
59877;BME280;45749;51.140;17.184;2022-09-09T01:20:17;99730.29;;;16.77;94.81
59877;BME280;45749;51.140;17.184;2022-09-09T01:23:11;99734.77;;;16.73;94.78
59877;BME280;45749;51.140;17.184;2022-09-09T01:26:18;99738.08;;;16.67;94.75
59877;BME280;45749;51.140;17.184;2022-09-09T01:28:49;99736.39;;;16.61;94.92
59877;BME280;45749;51.140;17.184;2022-09-09T01:31:21;99740.89;;;16.61;95.02
59877;BME280;45749;51.140;17.184;2022-09-09T01:33:49;99743.23;;;16.60;94.87
59877;BME280;45749;51.140;17.184;2022-09-09T01:36:39;99750.22;;;16.57;94.73
59877;BME280;45749;51.140;17.184;2022-09-09T01:39:10;99746.88;;;16.55;94.43
59877;BME280;45749;51.140;17.184;2022-09-09T01:41:36;99748.56;;;16.56;94.53
59877;BME280;45749;51.140;17.184;2022-09-09T01:44:03;99734.89;;;16.47;94.54
59877;BME280;45749;51.140;17.184;2022-09-09T01:46:29;99745.55;;;16.51;94.39
59877;BME280;45749;51.140;17.184;2022-09-09T01:48:57;99747.88;;;16.50;94.37
59877;BME280;45749;51.140;17.184;2022-09-09T01:51:25;99751.38;;;16.50;94.30
59877;BME280;45749;51.140;17.184;2022-09-09T01:53:51;99750.22;;;16.49;94.42
59877;BME280;45749;51.140;17.184;2022-09-09T02:02:12;99754.69;;;16.44;94.34
59877;BME280;45749;51.140;17.184;2022-09-09T02:04:54;99755.51;;;16.40;94.27
59877;BME280;45749;51.140;17.184;2022-09-09T02:07:41;99753.67;;;16.37;94.29
59877;BME280;45749;51.140;17.184;2022-09-09T02:10:12;99756.16;;;16.34;94.34
59877;BME280;45749;51.140;17.184;2022-09-09T02:12:53;99756.80;;;16.28;94.50
59877;BME280;45749;51.140;17.184;2022-09-09T02:15:27;99762.45;;;16.25;94.67
59877;BME280;45749;51.140;17.184;2022-09-09T02:18:04;99762.45;;;16.25;94.73
59877;BME280;45749;51.140;17.184;2022-09-09T02:20:36;99747.43;;;16.12;94.73
59877;BME280;45749;51.140;17.184;2022-09-09T02:23:04;99766.61;;;16.24;94.77
59877;BME280;45749;51.140;17.184;2022-09-09T02:25:33;99745.28;;;16.15;94.51
59877;BME280;45749;51.140;17.184;2022-09-09T02:28:01;99770.42;;;16.21;94.37
59877;BME280;45749;51.140;17.184;2022-09-09T02:30:30;99776.90;;;16.18;94.41
59877;BME280;45749;51.140;17.184;2022-09-09T02:33:00;99772.39;;;16.15;94.49
59877;BME280;45749;51.140;17.184;2022-09-09T02:35:28;99753.70;;;15.99;94.14
59877;BME280;45749;51.140;17.184;2022-09-09T02:37:58;99752.86;;;15.94;94.24
59877;BME280;45749;51.140;17.184;2022-09-09T02:40:26;99752.86;;;15.94;94.24
59877;BME280;45749;51.140;17.184;2022-09-09T02:42:54;99775.86;;;16.03;94.23
59877;BME280;45749;51.140;17.184;2022-09-09T02:45:27;99774.84;;;16.00;94.31
59877;BME280;45749;51.140;17.184;2022-09-09T02:48:40;99774.84;;;16.00;94.31
59877;BME280;45749;51.140;17.184;2022-09-09T02:50:52;99778.51;;;15.99;94.34
59877;BME280;45749;51.140;17.184;2022-09-09T02:53:36;99784.30;;;15.99;94.61
59877;BME280;45749;51.140;17.184;2022-09-09T02:56:14;99762.30;;;15.84;94.36
59877;BME280;45749;51.140;17.184;2022-09-09T02:58:41;99762.30;;;15.84;94.36
59877;BME280;45749;51.140;17.184;2022-09-09T03:01:08;99785.95;;;15.95;94.53
59877;BME280;45749;51.140;17.184;2022-09-09T03:03:34;99788.92;;;15.92;94.32
59877;BME280;45749;51.140;17.184;2022-09-09T03:06:00;99766.26;;;15.76;94.14
59877;BME280;45749;51.140;17.184;2022-09-09T03:08:26;99766.26;;;15.76;94.14
59877;BME280;45749;51.140;17.184;2022-09-09T03:10:54;99790.91;;;15.86;94.27
59877;BME280;45749;51.140;17.184;2022-09-09T03:13:21;99787.06;;;15.85;94.11
59877;BME280;45749;51.140;17.184;2022-09-09T03:15:47;99791.04;;;15.81;94.27
59877;BME280;45749;51.140;17.184;2022-09-09T03:18:14;99794.19;;;15.76;94.31
59877;BME280;45749;51.140;17.184;2022-09-09T03:20:40;99770.27;;;15.58;94.53
59877;BME280;45749;51.140;17.184;2022-09-09T03:23:07;99799.11;;;15.67;94.59
59877;BME280;45749;51.140;17.184;2022-09-09T03:25:34;99794.37;;;15.57;94.76
59877;BME280;45749;51.140;17.184;2022-09-09T03:28:01;99812.17;;;15.60;94.67
59877;BME280;45749;51.140;17.184;2022-09-09T03:30:28;99811.34;;;15.60;94.85
59877;BME280;45749;51.140;17.184;2022-09-09T03:32:54;99804.00;;;15.58;94.90
59877;BME280;45749;51.140;17.184;2022-09-09T03:35:21;99797.35;;;15.58;94.74
59877;BME280;45749;51.140;17.184;2022-09-09T03:37:47;99797.35;;;15.58;94.74
59877;BME280;45749;51.140;17.184;2022-09-09T03:40:13;99801.67;;;15.59;94.52
59877;BME280;45749;51.140;17.184;2022-09-09T03:42:40;99814.64;;;15.58;94.34
59877;BME280;45749;51.140;17.184;2022-09-09T03:45:08;99814.64;;;15.58;94.34
59877;BME280;45749;51.140;17.184;2022-09-09T03:47:36;99818.30;;;15.57;94.17
59877;BME280;45749;51.140;17.184;2022-09-09T03:50:02;99819.77;;;15.55;94.31
59877;BME280;45749;51.140;17.184;2022-09-09T03:52:29;99812.60;;;15.52;94.50
59877;BME280;45749;51.140;17.184;2022-09-09T03:54:56;99810.75;;;15.48;94.58
59877;BME280;45749;51.140;17.184;2022-09-09T03:57:22;99814.09;;;15.50;94.59
59877;BME280;45749;51.140;17.184;2022-09-09T03:59:48;99813.41;;;15.48;94.65
59877;BME280;45749;51.140;17.184;2022-09-09T04:02:14;99817.87;;;15.43;94.63
59877;BME280;45749;51.140;17.184;2022-09-09T04:04:40;99816.66;;;15.38;94.59
59877;BME280;45749;51.140;17.184;2022-09-09T04:07:06;99814.11;;;15.32;94.61
59877;BME280;45749;51.140;17.184;2022-09-09T04:09:32;99820.09;;;15.30;94.60
59877;BME280;45749;51.140;17.184;2022-09-09T04:11:58;99821.87;;;15.25;94.54
59877;BME280;45749;51.140;17.184;2022-09-09T04:14:24;99821.98;;;15.20;94.57
59877;BME280;45749;51.140;17.184;2022-09-09T04:16:52;99826.63;;;15.18;94.64
59877;BME280;45749;51.140;17.184;2022-09-09T04:19:18;99826.77;;;15.16;94.61
59877;BME280;45749;51.140;17.184;2022-09-09T04:21:44;99829.42;;;15.16;94.61
59877;BME280;45749;51.140;17.184;2022-09-09T04:24:10;99824.25;;;15.11;94.51
59877;BME280;45749;51.140;17.184;2022-09-09T04:26:36;99824.25;;;15.11;94.51
59877;BME280;45749;51.140;17.184;2022-09-09T04:29:03;99828.54;;;15.08;94.39
59877;BME280;45749;51.140;17.184;2022-09-09T04:31:30;99832.63;;;15.02;94.36
59877;BME280;45749;51.140;17.184;2022-09-09T04:33:57;99841.53;;;14.97;94.45
59877;BME280;45749;51.140;17.184;2022-09-09T04:36:23;99841.37;;;14.94;94.59
59877;BME280;45749;51.140;17.184;2022-09-09T04:38:49;99834.56;;;14.96;94.80
59877;BME280;45749;51.140;17.184;2022-09-09T04:41:15;99831.77;;;14.97;94.69
59877;BME280;45749;51.140;17.184;2022-09-09T04:43:42;99837.72;;;14.95;94.63
59877;BME280;45749;51.140;17.184;2022-09-09T04:46:08;99838.34;;;14.93;94.55
59877;BME280;45749;51.140;17.184;2022-09-09T04:48:34;99835.86;;;14.92;94.57
59877;BME280;45749;51.140;17.184;2022-09-09T04:51:04;99838.65;;;14.90;94.76
59877;BME280;45749;51.140;17.184;2022-09-09T04:53:31;99835.00;;;14.87;94.69
59877;BME280;45749;51.140;17.184;2022-09-09T04:58:39;99837.95;;;14.84;94.90
59877;BME280;45749;51.140;17.184;2022-09-09T05:01:14;99842.40;;;14.84;95.09
59877;BME280;45749;51.140;17.184;2022-09-09T05:03:43;99843.89;;;14.82;95.10
59877;BME280;45749;51.140;17.184;2022-09-09T05:06:12;99841.94;;;14.84;95.31
59877;BME280;45749;51.140;17.184;2022-09-09T05:08:41;99843.27;;;14.84;95.27
59877;BME280;45749;51.140;17.184;2022-09-09T05:11:22;99845.05;;;14.84;95.55
59877;BME280;45749;51.140;17.184;2022-09-09T05:13:51;99845.22;;;14.82;95.50
59877;BME280;45749;51.140;17.184;2022-09-09T05:16:18;99847.87;;;14.82;95.60
59877;BME280;45749;51.140;17.184;2022-09-09T05:18:45;99846.88;;;14.83;95.61
59877;BME280;45749;51.140;17.184;2022-09-09T05:21:13;99848.21;;;14.83;95.81
59877;BME280;45749;51.140;17.184;2022-09-09T05:23:39;99854.85;;;14.83;95.92
59877;BME280;45749;51.140;17.184;2022-09-09T05:26:08;99860.53;;;14.84;95.94
59877;BME280;45749;51.140;17.184;2022-09-09T05:28:36;99856.05;;;14.85;96.13
59877;BME280;45749;51.140;17.184;2022-09-09T05:31:07;99857.70;;;14.86;96.18
59877;BME280;45749;51.140;17.184;2022-09-09T05:33:35;99862.02;;;14.87;96.34
59877;BME280;45749;51.140;17.184;2022-09-09T05:36:04;99860.56;;;14.88;96.44
59877;BME280;45749;51.140;17.184;2022-09-09T05:38:32;99856.91;;;14.89;96.46
59877;BME280;45749;51.140;17.184;2022-09-09T05:40:58;99856.61;;;14.92;96.57
59877;BME280;45749;51.140;17.184;2022-09-09T05:43:26;99865.78;;;14.94;96.69
59877;BME280;45749;51.140;17.184;2022-09-09T05:46:00;99863.78;;;14.96;96.84
59877;BME280;45749;51.140;17.184;2022-09-09T05:48:32;99861.66;;;14.99;96.89
59877;BME280;45749;51.140;17.184;2022-09-09T05:51:00;99868.00;;;15.03;96.95
59877;BME280;45749;51.140;17.184;2022-09-09T05:53:28;99867.37;;;15.05;97.04
59877;BME280;45749;51.140;17.184;2022-09-09T05:58:33;99860.06;;;15.07;97.18
59877;BME280;45749;51.140;17.184;2022-09-09T06:01:05;99869.89;;;15.10;97.30
59877;BME280;45749;51.140;17.184;2022-09-09T06:03:38;99866.10;;;15.13;97.47
59877;BME280;45749;51.140;17.184;2022-09-09T06:06:09;99870.78;;;15.15;96.99
59877;BME280;45749;51.140;17.184;2022-09-09T06:08:39;99859.52;;;15.17;97.66
59877;BME280;45749;51.140;17.184;2022-09-09T06:11:12;99871.15;;;15.20;97.60
59877;BME280;45749;51.140;17.184;2022-09-09T06:13:37;99872.84;;;15.21;98.12
59877;BME280;45749;51.140;17.184;2022-09-09T06:16:06;99869.69;;;15.21;98.37
59877;BME280;45749;51.140;17.184;2022-09-09T06:18:37;99870.38;;;15.23;98.40
59877;BME280;45749;51.140;17.184;2022-09-09T06:21:05;99865.22;;;15.26;98.98
59877;BME280;45749;51.140;17.184;2022-09-09T06:23:34;99862.63;;;15.30;98.74
59877;BME280;45749;51.140;17.184;2022-09-09T06:26:10;99856.64;;;15.32;98.97
59877;BME280;45749;51.140;17.184;2022-09-09T06:28:38;99857.34;;;15.34;99.02
59877;BME280;45749;51.140;17.184;2022-09-09T06:31:07;99850.69;;;15.34;98.73
59877;BME280;45749;51.140;17.184;2022-09-09T06:33:37;99865.34;;;15.38;98.77
59877;BME280;45749;51.140;17.184;2022-09-09T06:36:10;99856.23;;;15.41;99.23
59877;BME280;45749;51.140;17.184;2022-09-09T06:38:41;99853.27;;;15.44;99.07
59877;BME280;45749;51.140;17.184;2022-09-09T06:41:09;99859.61;;;15.47;99.24
59877;BME280;45749;51.140;17.184;2022-09-09T06:43:35;99861.45;;;15.51;99.46
59877;BME280;45749;51.140;17.184;2022-09-09T06:48:33;99864.16;;;15.59;100.00
59877;BME280;45749;51.140;17.184;2022-09-09T06:51:20;99866.19;;;15.61;100.00
59877;BME280;45749;51.140;17.184;2022-09-09T06:53:50;99871.03;;;15.65;100.00
59877;BME280;45749;51.140;17.184;2022-09-09T06:58:50;99870.97;;;15.75;100.00
59877;BME280;45749;51.140;17.184;2022-09-09T07:01:22;99863.87;;;15.80;100.00
59877;BME280;45749;51.140;17.184;2022-09-09T07:03:52;99862.55;;;15.84;100.00
59877;BME280;45749;51.140;17.184;2022-09-09T07:06:24;99865.42;;;15.90;100.00
59877;BME280;45749;51.140;17.184;2022-09-09T07:08:57;99869.77;;;15.95;100.00
59877;BME280;45749;51.140;17.184;2022-09-09T07:11:22;99871.47;;;16.01;100.00
59877;BME280;45749;51.140;17.184;2022-09-09T07:13:49;99872.31;;;16.05;100.00
59877;BME280;45749;51.140;17.184;2022-09-09T07:16:17;99873.19;;;16.10;100.00
59877;BME280;45749;51.140;17.184;2022-09-09T07:18:46;99880.05;;;16.16;100.00
59877;BME280;45749;51.140;17.184;2022-09-09T07:21:13;99879.89;;;16.22;100.00
59877;BME280;45749;51.140;17.184;2022-09-09T07:23:41;99881.09;;;16.28;100.00
59877;BME280;45749;51.140;17.184;2022-09-09T07:26:10;99880.32;;;16.35;100.00
59877;BME280;45749;51.140;17.184;2022-09-09T07:28:38;99880.34;;;16.44;100.00
59877;BME280;45749;51.140;17.184;2022-09-09T07:31:04;99882.69;;;16.51;100.00
59877;BME280;45749;51.140;17.184;2022-09-09T07:33:33;99864.19;;;16.45;100.00
59877;BME280;45749;51.140;17.184;2022-09-09T07:36:08;99880.78;;;16.69;100.00
59877;BME280;45749;51.140;17.184;2022-09-09T07:38:44;99880.78;;;16.69;100.00
59877;BME280;45749;51.140;17.184;2022-09-09T07:41:14;99866.34;;;16.76;100.00
59877;BME280;45749;51.140;17.184;2022-09-09T07:43:42;99867.36;;;16.87;100.00
59877;BME280;45749;51.140;17.184;2022-09-09T07:46:11;99867.36;;;16.87;100.00
59877;BME280;45749;51.140;17.184;2022-09-09T07:48:38;99863.72;;;16.88;100.00
59877;BME280;45749;51.140;17.184;2022-09-09T07:51:10;99874.70;;;16.97;100.00
59877;BME280;45749;51.140;17.184;2022-09-09T07:53:38;99879.89;;;17.03;100.00
59877;BME280;45749;51.140;17.184;2022-09-09T07:56:07;99887.89;;;17.07;100.00
59877;BME280;45749;51.140;17.184;2022-09-09T07:58:40;99891.23;;;17.13;100.00
59877;BME280;45749;51.140;17.184;2022-09-09T08:01:06;99898.25;;;17.18;100.00
59877;BME280;45749;51.140;17.184;2022-09-09T08:03:37;99898.25;;;17.26;100.00
59877;BME280;45749;51.140;17.184;2022-09-09T08:06:06;99896.08;;;17.30;100.00
59877;BME280;45749;51.140;17.184;2022-09-09T08:08:35;99895.93;;;17.35;100.00
59877;BME280;45749;51.140;17.184;2022-09-09T08:11:07;99897.94;;;17.42;100.00
59877;BME280;45749;51.140;17.184;2022-09-09T08:13:36;99895.77;;;17.49;100.00
59877;BME280;45749;51.140;17.184;2022-09-09T08:16:08;99895.59;;;17.59;100.00
59877;BME280;45749;51.140;17.184;2022-09-09T08:18:37;99890.92;;;17.69;100.00
59877;BME280;45749;51.140;17.184;2022-09-09T08:21:09;99887.28;;;17.78;100.00
59877;BME280;45749;51.140;17.184;2022-09-09T08:23:44;99891.62;;;17.88;100.00
59877;BME280;45749;51.140;17.184;2022-09-09T08:26:14;99887.25;;;17.99;100.00
59877;BME280;45749;51.140;17.184;2022-09-09T08:28:42;99898.25;;;18.08;100.00
59877;BME280;45749;51.140;17.184;2022-09-09T08:31:14;99892.25;;;18.10;100.00
59877;BME280;45749;51.140;17.184;2022-09-09T08:33:43;99891.23;;;18.11;100.00
59877;BME280;45749;51.140;17.184;2022-09-09T08:36:19;99885.05;;;18.15;100.00
59877;BME280;45749;51.140;17.184;2022-09-09T08:38:48;99886.21;;;18.20;100.00
59877;BME280;45749;51.140;17.184;2022-09-09T08:44:50;99885.51;;;18.31;100.00
59877;BME280;45749;51.140;17.184;2022-09-09T08:50:29;99886.94;;;18.45;100.00
59877;BME280;45749;51.140;17.184;2022-09-09T08:53:09;99886.25;;;18.51;100.00
59877;BME280;45749;51.140;17.184;2022-09-09T08:55:41;99888.27;;;18.54;100.00
59877;BME280;45749;51.140;17.184;2022-09-09T08:58:19;99892.06;;;18.63;100.00
59877;BME280;45749;51.140;17.184;2022-09-09T09:07:42;99893.00;;;18.83;99.49
59877;BME280;45749;51.140;17.184;2022-09-09T09:13:20;99903.95;;;18.92;96.92
59877;BME280;45749;51.140;17.184;2022-09-09T09:15:55;99899.73;;;19.02;99.09
59877;BME280;45749;51.140;17.184;2022-09-09T09:18:24;99893.17;;;19.08;97.35
59877;BME280;45749;51.140;17.184;2022-09-09T09:21:06;99896.16;;;19.13;98.63
59877;BME280;45749;51.140;17.184;2022-09-09T09:23:47;99899.59;;;19.26;97.67
59877;BME280;45749;51.140;17.184;2022-09-09T09:26:34;99895.97;;;19.38;97.39
59877;BME280;45749;51.140;17.184;2022-09-09T09:29:14;99893.76;;;19.45;94.62
59877;BME280;45749;51.140;17.184;2022-09-09T09:31:38;99887.70;;;19.52;96.52
59877;BME280;45749;51.140;17.184;2022-09-09T09:34:04;99900.50;;;19.64;97.38
59877;BME280;45749;51.140;17.184;2022-09-09T09:36:39;99901.08;;;19.75;96.25
59877;BME280;45749;51.140;17.184;2022-09-09T09:39:08;99901.19;;;19.81;95.58
59877;BME280;45749;51.140;17.184;2022-09-09T09:41:38;99898.05;;;19.93;94.54
59877;BME280;45749;51.140;17.184;2022-09-09T09:44:21;99897.48;;;20.01;93.14
59877;BME280;45749;51.140;17.184;2022-09-09T09:46:47;99900.41;;;20.10;92.53
59877;BME280;45749;51.140;17.184;2022-09-09T09:49:13;99901.45;;;20.20;92.99
59877;BME280;45749;51.140;17.184;2022-09-09T09:51:39;99896.18;;;20.27;92.81
59877;BME280;45749;51.140;17.184;2022-09-09T09:54:26;99888.44;;;20.32;92.96
59877;BME280;45749;51.140;17.184;2022-09-09T09:56:53;99899.81;;;20.34;92.53
59877;BME280;45749;51.140;17.184;2022-09-09T09:59:33;99901.15;;;20.34;91.89
59877;BME280;45749;51.140;17.184;2022-09-09T10:02:24;99901.46;;;20.35;91.17
59877;BME280;45749;51.140;17.184;2022-09-09T10:05:03;99901.35;;;20.43;91.58
59877;BME280;45749;51.140;17.184;2022-09-09T10:07:31;99897.42;;;20.54;91.55
59877;BME280;45749;51.140;17.184;2022-09-09T10:09:58;99900.19;;;20.60;90.48
59877;BME280;45749;51.140;17.184;2022-09-09T10:12:32;99898.96;;;20.63;88.87
59877;BME280;45749;51.140;17.184;2022-09-09T10:24:43;99895.82;;;21.11;88.80
59877;BME280;45749;51.140;17.184;2022-09-09T10:27:33;99894.41;;;21.25;87.03
59877;BME280;45749;51.140;17.184;2022-09-09T10:30:23;99896.33;;;21.31;86.10
59877;BME280;45749;51.140;17.184;2022-09-09T10:33:10;99903.04;;;21.31;85.37
59877;BME280;45749;51.140;17.184;2022-09-09T10:47:03;99892.71;;;21.61;83.79
59877;BME280;45749;51.140;17.184;2022-09-09T10:55:24;99886.59;;;21.95;82.05
59877;BME280;45749;51.140;17.184;2022-09-09T10:57:53;99889.23;;;22.06;82.74
59877;BME280;45749;51.140;17.184;2022-09-09T11:00:25;99884.09;;;22.11;84.16
59877;BME280;45749;51.140;17.184;2022-09-09T11:03:04;99882.20;;;22.15;82.45
59877;BME280;45749;51.140;17.184;2022-09-09T11:05:41;99881.84;;;22.14;80.54
59877;BME280;45749;51.140;17.184;2022-09-09T11:08:27;99884.59;;;22.21;82.09
59877;BME280;45749;51.140;17.184;2022-09-09T11:14:14;99887.45;;;22.30;79.38
59877;BME280;45749;51.140;17.184;2022-09-09T11:16:53;99886.27;;;22.39;81.43
59877;BME280;45749;51.140;17.184;2022-09-09T11:19:25;99886.94;;;22.48;81.07
59877;BME280;45749;51.140;17.184;2022-09-09T11:21:53;99882.72;;;22.56;80.07
59877;BME280;45749;51.140;17.184;2022-09-09T11:27:06;99892.95;;;22.74;80.73
59877;BME280;45749;51.140;17.184;2022-09-09T11:32:56;99890.73;;;22.91;79.23
59877;BME280;45749;51.140;17.184;2022-09-09T11:41:15;99886.16;;;23.15;77.73
59877;BME280;45749;51.140;17.184;2022-09-09T11:43:44;99894.64;;;23.19;77.41
59877;BME280;45749;51.140;17.184;2022-09-09T11:46:20;99890.53;;;23.23;77.26
59877;BME280;45749;51.140;17.184;2022-09-09T11:49:00;99881.31;;;23.28;78.20
59877;BME280;45749;51.140;17.184;2022-09-09T11:51:29;99881.13;;;23.36;77.80
59877;BME280;45749;51.140;17.184;2022-09-09T11:54:00;99882.97;;;23.36;75.55
59877;BME280;45749;51.140;17.184;2022-09-09T11:56:46;99890.02;;;23.30;75.68
59877;BME280;45749;51.140;17.184;2022-09-09T11:59:27;99891.14;;;23.25;75.47
59877;BME280;45749;51.140;17.184;2022-09-09T12:01:58;99897.25;;;23.16;74.68
59877;BME280;45749;51.140;17.184;2022-09-09T12:04:37;99895.67;;;23.11;73.73
59877;BME280;45749;51.140;17.184;2022-09-09T12:12:55;99885.80;;;22.94;72.74
59877;BME280;45749;51.140;17.184;2022-09-09T12:17:53;99886.97;;;22.85;73.77
59877;BME280;45749;51.140;17.184;2022-09-09T12:20:38;99888.32;;;22.85;73.62
59877;BME280;45749;51.140;17.184;2022-09-09T12:23:30;99881.08;;;22.86;74.73
59877;BME280;45749;51.140;17.184;2022-09-09T12:32:15;99878.92;;;22.92;72.99
59877;BME280;45749;51.140;17.184;2022-09-09T12:34:54;99877.33;;;22.98;73.41
59877;BME280;45749;51.140;17.184;2022-09-09T12:37:37;99872.67;;;23.02;73.83
59877;BME280;45749;51.140;17.184;2022-09-09T12:40:25;99868.34;;;23.08;72.81
59877;BME280;45749;51.140;17.184;2022-09-09T12:42:53;99876.31;;;23.12;72.47
59877;BME280;45749;51.140;17.184;2022-09-09T12:45:22;99871.86;;;23.08;71.61
59877;BME280;45749;51.140;17.184;2022-09-09T12:48:06;99875.48;;;23.05;70.93
59877;BME280;45749;51.140;17.184;2022-09-09T12:50:36;99875.24;;;23.00;70.99
59877;BME280;45749;51.140;17.184;2022-09-09T12:53:22;99878.97;;;22.99;71.51
59877;BME280;45749;51.140;17.184;2022-09-09T12:55:54;99888.09;;;22.98;72.51
59877;BME280;45749;51.140;17.184;2022-09-09T12:58:29;99898.21;;;22.96;72.13
59877;BME280;45749;51.140;17.184;2022-09-09T13:01:00;99897.38;;;22.95;71.61
59877;BME280;45749;51.140;17.184;2022-09-09T13:03:29;99895.22;;;22.94;72.36
59877;BME280;45749;51.140;17.184;2022-09-09T13:05:58;99883.94;;;22.95;71.18
59877;BME280;45749;51.140;17.184;2022-09-09T13:08:25;99870.27;;;22.97;70.09
59877;BME280;45749;51.140;17.184;2022-09-09T13:11:04;99874.63;;;22.98;70.37
59877;BME280;45749;51.140;17.184;2022-09-09T13:13:38;99875.98;;;22.98;71.91
59877;BME280;45749;51.140;17.184;2022-09-09T13:18:52;99870.92;;;23.05;70.65
59877;BME280;45749;51.140;17.184;2022-09-09T13:21:19;99870.30;;;23.10;70.95
59877;BME280;45749;51.140;17.184;2022-09-09T13:23:49;99867.72;;;23.12;71.64
59877;BME280;45749;51.140;17.184;2022-09-09T13:26:25;99860.70;;;23.18;72.58
59877;BME280;45749;51.140;17.184;2022-09-09T13:28:55;99858.23;;;23.23;71.71
59877;BME280;45749;51.140;17.184;2022-09-09T13:31:44;99852.23;;;23.28;71.57
59877;BME280;45749;51.140;17.184;2022-09-09T13:34:25;99851.08;;;23.33;70.74
59877;BME280;45749;51.140;17.184;2022-09-09T13:36:46;99846.73;;;23.38;69.70
59877;BME280;45749;51.140;17.184;2022-09-09T13:39:17;99843.74;;;23.37;69.18
59877;BME280;45749;51.140;17.184;2022-09-09T13:41:45;99849.43;;;23.38;68.83
59877;BME280;45749;51.140;17.184;2022-09-09T13:44:28;99853.70;;;23.44;70.13
59877;BME280;45749;51.140;17.184;2022-09-09T13:47:20;99848.91;;;23.46;69.95
59877;BME280;45749;51.140;17.184;2022-09-09T13:49:48;99836.80;;;23.46;70.66
59877;BME280;45749;51.140;17.184;2022-09-09T13:52:16;99830.70;;;23.41;69.31
59877;BME280;45749;51.140;17.184;2022-09-09T13:54:51;99834.52;;;23.36;69.56
59877;BME280;45749;51.140;17.184;2022-09-09T13:57:23;99829.98;;;23.30;69.34
59877;BME280;45749;51.140;17.184;2022-09-09T13:59:51;99823.44;;;23.28;69.49
59877;BME280;45749;51.140;17.184;2022-09-09T14:02:20;99823.66;;;23.33;69.75
59877;BME280;45749;51.140;17.184;2022-09-09T14:04:48;99829.23;;;23.38;69.30
59877;BME280;45749;51.140;17.184;2022-09-09T14:07:18;99826.77;;;23.44;68.47
59877;BME280;45749;51.140;17.184;2022-09-09T14:09:45;99820.04;;;23.44;67.21
59877;BME280;45749;51.140;17.184;2022-09-09T14:12:13;99821.39;;;23.44;68.72
59877;BME280;45749;51.140;17.184;2022-09-09T14:14:40;99825.42;;;23.44;69.20
59877;BME280;45749;51.140;17.184;2022-09-09T14:17:10;99828.83;;;23.41;68.04
59877;BME280;45749;51.140;17.184;2022-09-09T14:19:36;99833.80;;;23.38;68.50
59877;BME280;45749;51.140;17.184;2022-09-09T14:22:05;99834.43;;;23.33;68.42
59877;BME280;45749;51.140;17.184;2022-09-09T14:24:31;99830.80;;;23.30;68.32
59877;BME280;45749;51.140;17.184;2022-09-09T14:26:57;99827.70;;;23.27;68.12
59877;BME280;45749;51.140;17.184;2022-09-09T14:29:23;99832.45;;;23.25;67.10
59877;BME280;45749;51.140;17.184;2022-09-09T14:31:50;99834.20;;;23.22;68.26
59877;BME280;45749;51.140;17.184;2022-09-09T14:34:16;99829.04;;;23.20;67.26
59877;BME280;45749;51.140;17.184;2022-09-09T14:36:42;99832.45;;;23.18;67.45
59877;BME280;45749;51.140;17.184;2022-09-09T14:39:10;99832.55;;;23.14;66.86
59877;BME280;45749;51.140;17.184;2022-09-09T14:41:36;99835.31;;;23.10;67.57
59877;BME280;45749;51.140;17.184;2022-09-09T14:44:03;99837.59;;;23.06;67.53
59877;BME280;45749;51.140;17.184;2022-09-09T14:46:29;99836.16;;;23.04;67.53
59877;BME280;45749;51.140;17.184;2022-09-09T14:48:55;99837.09;;;23.00;67.58
59877;BME280;45749;51.140;17.184;2022-09-09T14:51:24;99836.56;;;23.01;68.00
59877;BME280;45749;51.140;17.184;2022-09-09T14:53:57;99833.23;;;22.99;67.21
59877;BME280;45749;51.140;17.184;2022-09-09T14:56:26;99826.52;;;22.99;67.01
59877;BME280;45749;51.140;17.184;2022-09-09T14:58:55;99824.04;;;22.97;66.95
59877;BME280;45749;51.140;17.184;2022-09-09T15:01:22;99819.15;;;22.97;67.49
59877;BME280;45749;51.140;17.184;2022-09-09T15:03:51;99814.62;;;22.97;68.34
59877;BME280;45749;51.140;17.184;2022-09-09T15:06:20;99812.42;;;22.97;68.42
59877;BME280;45749;51.140;17.184;2022-09-09T15:08:50;99807.05;;;22.97;68.68
59877;BME280;45749;51.140;17.184;2022-09-09T15:11:18;99805.61;;;22.94;68.56
59877;BME280;45749;51.140;17.184;2022-09-09T15:13:45;99802.78;;;22.91;68.74